sensor_id;sensor_type;location;lat;lon;timestamp;pressure;altitude;pressure_sealevel;temperature;humidity
9307;BME280;4691;47.612;7.610;2022-12-10T00:00:32;97015.06;;;0.71;100.00
9307;BME280;4691;47.612;7.610;2022-12-10T00:02:57;97018.63;;;0.70;100.00
9307;BME280;4691;47.612;7.610;2022-12-10T00:05:23;97011.59;;;0.70;100.00
9307;BME280;4691;47.612;7.610;2022-12-10T00:07:48;97011.59;;;0.70;100.00
9307;BME280;4691;47.612;7.610;2022-12-10T00:10:14;97013.47;;;0.68;100.00
9307;BME280;4691;47.612;7.610;2022-12-10T00:12:39;97017.22;;;0.64;100.00
9307;BME280;4691;47.612;7.610;2022-12-10T00:15:04;97031.13;;;0.66;100.00
9307;BME280;4691;47.612;7.610;2022-12-10T00:17:30;97025.47;;;0.72;100.00
9307;BME280;4691;47.612;7.610;2022-12-10T00:19:55;97034.50;;;0.68;100.00
9307;BME280;4691;47.612;7.610;2022-12-10T00:22:20;97043.75;;;0.61;100.00
9307;BME280;4691;47.612;7.610;2022-12-10T00:24:46;97063.34;;;0.70;100.00
9307;BME280;4691;47.612;7.610;2022-12-10T00:27:11;97066.06;;;0.68;100.00
9307;BME280;4691;47.612;7.610;2022-12-10T00:29:36;97073.34;;;0.64;100.00
9307;BME280;4691;47.612;7.610;2022-12-10T00:32:01;97074.56;;;0.59;100.00
9307;BME280;4691;47.612;7.610;2022-12-10T00:34:30;97065.44;;;0.64;100.00
9307;BME280;4691;47.612;7.610;2022-12-10T00:36:56;97064.19;;;0.70;100.00
9307;BME280;4691;47.612;7.610;2022-12-10T00:39:21;97061.03;;;0.65;100.00
9307;BME280;4691;47.612;7.610;2022-12-10T00:41:47;97061.22;;;0.62;100.00
9307;BME280;4691;47.612;7.610;2022-12-10T00:44:13;97057.22;;;0.69;100.00
9307;BME280;4691;47.612;7.610;2022-12-10T00:46:39;97046.69;;;0.69;100.00
9307;BME280;4691;47.612;7.610;2022-12-10T00:49:04;97049.34;;;0.69;100.00
9307;BME280;4691;47.612;7.610;2022-12-10T00:51:30;97048.78;;;0.64;100.00
9307;BME280;4691;47.612;7.610;2022-12-10T00:53:57;97042.50;;;0.67;100.00
9307;BME280;4691;47.612;7.610;2022-12-10T00:56:26;97043.16;;;0.70;100.00
9307;BME280;4691;47.612;7.610;2022-12-10T00:58:51;97037.34;;;0.65;100.00
9307;BME280;4691;47.612;7.610;2022-12-10T01:01:29;97031.56;;;0.60;100.00
9307;BME280;4691;47.612;7.610;2022-12-10T01:04:00;97032.09;;;0.65;100.00
9307;BME280;4691;47.612;7.610;2022-12-10T01:06:31;97033.00;;;0.64;100.00
9307;BME280;4691;47.612;7.610;2022-12-10T01:08:59;97045.88;;;0.69;100.00
9307;BME280;4691;47.612;7.610;2022-12-10T01:11:29;97042.63;;;0.65;100.00
9307;BME280;4691;47.612;7.610;2022-12-10T01:13:54;97039.03;;;0.66;100.00
9307;BME280;4691;47.612;7.610;2022-12-10T01:16:21;97049.34;;;0.69;100.00
9307;BME280;4691;47.612;7.610;2022-12-10T01:18:47;97053.88;;;0.67;100.00
9307;BME280;4691;47.612;7.610;2022-12-10T01:21:16;97043.34;;;0.67;100.00
9307;BME280;4691;47.612;7.610;2022-12-10T01:23:43;97036.31;;;0.68;100.00
9307;BME280;4691;47.612;7.610;2022-12-10T01:26:12;97036.19;;;0.69;100.00
9307;BME280;4691;47.612;7.610;2022-12-10T01:28:39;97033.69;;;0.68;100.00
9307;BME280;4691;47.612;7.610;2022-12-10T01:31:14;97027.38;;;0.70;100.00
9307;BME280;4691;47.612;7.610;2022-12-10T01:33:40;97023.91;;;0.70;100.00
9307;BME280;4691;47.612;7.610;2022-12-10T01:36:11;97020.75;;;0.77;100.00
9307;BME280;4691;47.612;7.610;2022-12-10T01:38:37;97020.00;;;0.75;100.00
9307;BME280;4691;47.612;7.610;2022-12-10T01:41:03;97013.03;;;0.74;100.00
9307;BME280;4691;47.612;7.610;2022-12-10T01:44:02;97005.16;;;0.74;100.00
9307;BME280;4691;47.612;7.610;2022-12-10T01:46:30;97007.38;;;0.68;100.00
9307;BME280;4691;47.612;7.610;2022-12-10T01:48:56;97027.16;;;0.73;100.00
9307;BME280;4691;47.612;7.610;2022-12-10T01:51:24;97028.13;;;0.72;100.00
9307;BME280;4691;47.612;7.610;2022-12-10T01:53:51;97037.13;;;0.68;100.00
9307;BME280;4691;47.612;7.610;2022-12-10T01:56:18;97044.81;;;0.71;100.00
9307;BME280;4691;47.612;7.610;2022-12-10T01:58:44;97059.13;;;0.67;100.00
9307;BME280;4691;47.612;7.610;2022-12-10T02:01:13;97081.13;;;0.66;100.00
9307;BME280;4691;47.612;7.610;2022-12-10T02:06:43;97112.28;;;0.72;100.00
9307;BME280;4691;47.612;7.610;2022-12-10T02:09:23;97134.28;;;0.71;100.00
9307;BME280;4691;47.612;7.610;2022-12-10T02:14:17;97167.34;;;0.75;100.00
9307;BME280;4691;47.612;7.610;2022-12-10T02:17:44;97169.22;;;0.73;100.00
9307;BME280;4691;47.612;7.610;2022-12-10T02:22:47;97207.84;;;0.73;100.00
9307;BME280;4691;47.612;7.610;2022-12-10T02:25:15;97219.22;;;0.73;100.00
9307;BME280;4691;47.612;7.610;2022-12-10T02:30:34;97225.22;;;0.75;100.00
9307;BME280;4691;47.612;7.610;2022-12-10T02:33:03;97246.63;;;0.69;100.00
9307;BME280;4691;47.612;7.610;2022-12-10T02:35:32;97261.50;;;0.70;100.00
9307;BME280;4691;47.612;7.610;2022-12-10T02:38:08;97265.53;;;0.76;100.00
9307;BME280;4691;47.612;7.610;2022-12-10T02:40:36;97260.75;;;0.68;100.00
9307;BME280;4691;47.612;7.610;2022-12-10T02:43:06;97270.44;;;0.68;100.00
9307;BME280;4691;47.612;7.610;2022-12-10T02:45:33;97287.34;;;0.78;100.00
9307;BME280;4691;47.612;7.610;2022-12-10T02:48:02;97296.47;;;0.72;100.00
9307;BME280;4691;47.612;7.610;2022-12-10T02:50:28;97308.59;;;0.75;100.00
9307;BME280;4691;47.612;7.610;2022-12-10T02:52:54;97302.00;;;0.68;100.00
9307;BME280;4691;47.612;7.610;2022-12-10T02:55:19;97316.75;;;0.70;100.00
9307;BME280;4691;47.612;7.610;2022-12-10T02:58:07;97325.56;;;0.69;100.00
9307;BME280;4691;47.612;7.610;2022-12-10T03:00:43;97342.31;;;0.68;100.00
9307;BME280;4691;47.612;7.610;2022-12-10T03:11:16;97361.69;;;0.67;100.00
9307;BME280;4691;47.612;7.610;2022-12-10T03:13:48;97366.75;;;0.70;100.00
9307;BME280;4691;47.612;7.610;2022-12-10T03:19:37;97071.00;;;0.60;100.00
9307;BME280;4691;47.612;7.610;2022-12-10T03:22:06;97143.69;;;0.61;100.00
9307;BME280;4691;47.612;7.610;2022-12-10T03:24:35;97260.00;;;0.66;100.00
9307;BME280;4691;47.612;7.610;2022-12-10T03:27:03;97284.06;;;0.60;100.00
9307;BME280;4691;47.612;7.610;2022-12-10T03:29:35;97311.28;;;0.73;100.00
9307;BME280;4691;47.612;7.610;2022-12-10T03:32:02;97332.53;;;0.70;100.00
9307;BME280;4691;47.612;7.610;2022-12-10T03:34:28;97352.63;;;0.71;100.00
9307;BME280;4691;47.612;7.610;2022-12-10T03:36:54;97363.63;;;0.63;100.00
9307;BME280;4691;47.612;7.610;2022-12-10T03:39:20;97374.81;;;0.67;100.00
9307;BME280;4691;47.612;7.610;2022-12-10T03:41:45;97393.31;;;0.65;100.00
9307;BME280;4691;47.612;7.610;2022-12-10T03:44:11;97412.59;;;0.66;100.00
9307;BME280;4691;47.612;7.610;2022-12-10T03:46:37;97423.22;;;0.64;100.00
9307;BME280;4691;47.612;7.610;2022-12-10T03:49:03;97425.16;;;0.61;100.00
9307;BME280;4691;47.612;7.610;2022-12-10T03:51:28;97437.22;;;0.65;100.00
9307;BME280;4691;47.612;7.610;2022-12-10T03:53:54;97440.69;;;0.65;100.00
9307;BME280;4691;47.612;7.610;2022-12-10T03:56:19;97451.38;;;0.62;100.00
9307;BME280;4691;47.612;7.610;2022-12-10T03:58:46;97454.09;;;0.61;100.00
9307;BME280;4691;47.612;7.610;2022-12-10T04:01:11;97458.59;;;0.59;100.00
9307;BME280;4691;47.612;7.610;2022-12-10T04:03:38;97480.53;;;0.74;100.00
9307;BME280;4691;47.612;7.610;2022-12-10T04:06:11;97480.91;;;0.68;100.00
9307;BME280;4691;47.612;7.610;2022-12-10T04:08:36;97480.06;;;0.67;100.00
9307;BME280;4691;47.612;7.610;2022-12-10T04:11:08;97490.00;;;0.62;100.00
9307;BME280;4691;47.612;7.610;2022-12-10T04:13:35;97506.06;;;0.57;100.00
9307;BME280;4691;47.612;7.610;2022-12-10T04:16:19;97510.28;;;0.60;100.00
9307;BME280;4691;47.612;7.610;2022-12-10T04:19:04;97528.59;;;0.61;100.00
9307;BME280;4691;47.612;7.610;2022-12-10T04:21:31;97526.53;;;0.67;100.00
9307;BME280;4691;47.612;7.610;2022-12-10T04:24:17;97536.50;;;0.61;100.00
9307;BME280;4691;47.612;7.610;2022-12-10T04:27:16;97540.91;;;0.61;100.00
9307;BME280;4691;47.612;7.610;2022-12-10T04:29:42;97550.66;;;0.59;100.00
9307;BME280;4691;47.612;7.610;2022-12-10T04:32:08;97559.31;;;0.61;100.00
9307;BME280;4691;47.612;7.610;2022-12-10T04:34:33;97567.81;;;0.66;100.00
9307;BME280;4691;47.612;7.610;2022-12-10T04:36:59;97573.25;;;0.63;100.00
9307;BME280;4691;47.612;7.610;2022-12-10T04:39:25;97575.88;;;0.63;100.00
9307;BME280;4691;47.612;7.610;2022-12-10T04:41:50;97581.41;;;0.58;100.00
9307;BME280;4691;47.612;7.610;2022-12-10T04:44:16;97589.22;;;0.60;100.00
9307;BME280;4691;47.612;7.610;2022-12-10T04:46:42;97599.75;;;0.60;100.00
9307;BME280;4691;47.612;7.610;2022-12-10T04:49:07;97612.06;;;0.59;100.00
9307;BME280;4691;47.612;7.610;2022-12-10T04:51:33;97608.22;;;0.65;100.00
9307;BME280;4691;47.612;7.610;2022-12-10T04:53:59;97608.41;;;0.62;100.00
9307;BME280;4691;47.612;7.610;2022-12-10T04:56:24;97610.91;;;0.63;100.00
9307;BME280;4691;47.612;7.610;2022-12-10T04:58:50;97615.25;;;0.64;100.00
9307;BME280;4691;47.612;7.610;2022-12-10T05:01:16;97610.91;;;0.63;100.00
9307;BME280;4691;47.612;7.610;2022-12-10T05:03:43;97617.31;;;0.59;100.00
9307;BME280;4691;47.612;7.610;2022-12-10T05:06:11;97626.53;;;0.67;100.00
9307;BME280;4691;47.612;7.610;2022-12-10T05:08:38;97629.44;;;0.62;100.00
9307;BME280;4691;47.612;7.610;2022-12-10T05:11:06;97641.00;;;0.59;100.00
9307;BME280;4691;47.612;7.610;2022-12-10T05:13:31;97646.41;;;0.56;100.00
9307;BME280;4691;47.612;7.610;2022-12-10T05:15:57;97652.94;;;0.65;100.00
9307;BME280;4691;47.612;7.610;2022-12-10T05:18:23;97656.78;;;0.59;100.00
9307;BME280;4691;47.612;7.610;2022-12-10T05:20:49;97667.44;;;0.56;100.00
9307;BME280;4691;47.612;7.610;2022-12-10T05:23:15;97664.06;;;0.54;100.00
9307;BME280;4691;47.612;7.610;2022-12-10T05:26:03;97672.28;;;0.64;100.00
9307;BME280;4691;47.612;7.610;2022-12-10T05:28:30;97669.81;;;0.61;100.00
9307;BME280;4691;47.612;7.610;2022-12-10T05:30:55;97675.25;;;0.58;100.00
9307;BME280;4691;47.612;7.610;2022-12-10T05:33:21;97682.06;;;0.62;100.00
9307;BME280;4691;47.612;7.610;2022-12-10T05:36:01;97679.31;;;0.63;100.00
9307;BME280;4691;47.612;7.610;2022-12-10T05:38:27;97689.66;;;0.67;100.00
9307;BME280;4691;47.612;7.610;2022-12-10T05:40:53;97688.84;;;0.66;100.00
9307;BME280;4691;47.612;7.610;2022-12-10T05:43:18;97689.66;;;0.67;100.00
9307;BME280;4691;47.612;7.610;2022-12-10T05:45:44;97694.28;;;0.63;100.00
9307;BME280;4691;47.612;7.610;2022-12-10T05:48:10;97694.28;;;0.63;100.00
9307;BME280;4691;47.612;7.610;2022-12-10T05:50:36;97692.41;;;0.65;100.00
9307;BME280;4691;47.612;7.610;2022-12-10T05:53:02;97684.41;;;0.67;100.00
9307;BME280;4691;47.612;7.610;2022-12-10T05:55:27;97667.00;;;0.64;100.00
9307;BME280;4691;47.612;7.610;2022-12-10T05:57:54;97667.78;;;0.66;100.00
9307;BME280;4691;47.612;7.610;2022-12-10T06:00:20;97659.13;;;0.64;100.00
9307;BME280;4691;47.612;7.610;2022-12-10T06:02:46;97653.84;;;0.64;100.00
9307;BME280;4691;47.612;7.610;2022-12-10T06:05:11;97657.44;;;0.63;100.00
9307;BME280;4691;47.612;7.610;2022-12-10T06:07:37;97658.09;;;0.67;100.00
9307;BME280;4691;47.612;7.610;2022-12-10T06:10:02;97644.03;;;0.68;100.00
9307;BME280;4691;47.612;7.610;2022-12-10T06:12:27;97632.72;;;0.65;100.00
9307;BME280;4691;47.612;7.610;2022-12-10T06:14:53;97627.72;;;0.61;100.00
9307;BME280;4691;47.612;7.610;2022-12-10T06:17:18;97622.13;;;0.67;100.00
9307;BME280;4691;47.612;7.610;2022-12-10T06:19:43;97622.28;;;0.64;100.00
9307;BME280;4691;47.612;7.610;2022-12-10T06:22:09;97616.28;;;0.62;100.00
9307;BME280;4691;47.612;7.610;2022-12-10T06:24:34;97628.56;;;0.61;100.00
9307;BME280;4691;47.612;7.610;2022-12-10T06:26:59;97619.59;;;0.65;100.00
9307;BME280;4691;47.612;7.610;2022-12-10T06:29:24;97613.81;;;0.59;100.00
9307;BME280;4691;47.612;7.610;2022-12-10T06:31:50;97619.75;;;0.62;100.00
9307;BME280;4691;47.612;7.610;2022-12-10T06:34:15;97634.78;;;0.60;100.00
9307;BME280;4691;47.612;7.610;2022-12-10T06:36:40;97646.91;;;0.63;100.00
9307;BME280;4691;47.612;7.610;2022-12-10T06:39:05;97645.03;;;0.65;100.00
9307;BME280;4691;47.612;7.610;2022-12-10T06:41:31;97642.59;;;0.62;100.00
9307;BME280;4691;47.612;7.610;2022-12-10T06:43:56;97638.94;;;0.64;100.00
9307;BME280;4691;47.612;7.610;2022-12-10T06:46:25;97645.13;;;0.63;100.00
9307;BME280;4691;47.612;7.610;2022-12-10T06:48:52;97656.06;;;0.56;100.00
9307;BME280;4691;47.612;7.610;2022-12-10T06:51:18;97664.50;;;0.62;100.00
9307;BME280;4691;47.612;7.610;2022-12-10T06:53:43;97666.41;;;0.59;100.00
9307;BME280;4691;47.612;7.610;2022-12-10T06:56:16;97683.91;;;0.60;100.00
9307;BME280;4691;47.612;7.610;2022-12-10T06:58:42;97699.72;;;0.60;100.00
9307;BME280;4691;47.612;7.610;2022-12-10T07:01:12;97712.03;;;0.59;100.00
9307;BME280;4691;47.612;7.610;2022-12-10T07:03:38;97725.00;;;0.62;100.00
9307;BME280;4691;47.612;7.610;2022-12-10T07:06:06;97743.66;;;0.58;100.00
9307;BME280;4691;47.612;7.610;2022-12-10T07:08:32;97745.19;;;0.62;100.00
9307;BME280;4691;47.612;7.610;2022-12-10T07:10:57;97763.84;;;0.57;100.00
9307;BME280;4691;47.612;7.610;2022-12-10T07:13:23;97778.81;;;0.57;100.00
9307;BME280;4691;47.612;7.610;2022-12-10T07:15:49;97792.56;;;0.62;100.00
9307;BME280;4691;47.612;7.610;2022-12-10T07:18:14;97806.72;;;0.59;100.00
9307;BME280;4691;47.612;7.610;2022-12-10T07:20:39;97815.47;;;0.60;100.00
9307;BME280;4691;47.612;7.610;2022-12-10T07:23:05;97835.31;;;0.65;100.00
9307;BME280;4691;47.612;7.610;2022-12-10T07:25:30;97840.75;;;0.62;100.00
9307;BME280;4691;47.612;7.610;2022-12-10T07:27:55;97850.28;;;0.65;100.00
9307;BME280;4691;47.612;7.610;2022-12-10T07:30:21;97865.88;;;0.68;100.00
9307;BME280;4691;47.612;7.610;2022-12-10T07:32:46;97856.38;;;0.65;100.00
9307;BME280;4691;47.612;7.610;2022-12-10T07:35:11;97871.50;;;0.62;100.00
9307;BME280;4691;47.612;7.610;2022-12-10T07:37:36;97880.00;;;0.67;100.00
9307;BME280;4691;47.612;7.610;2022-12-10T07:40:02;97876.41;;;0.68;100.00
9307;BME280;4691;47.612;7.610;2022-12-10T07:42:28;97880.66;;;0.71;100.00
9307;BME280;4691;47.612;7.610;2022-12-10T07:44:53;97896.69;;;0.66;100.00
9307;BME280;4691;47.612;7.610;2022-12-10T07:47:18;97899.16;;;0.69;100.00
9307;BME280;4691;47.612;7.610;2022-12-10T07:49:45;97911.22;;;0.73;100.00
9307;BME280;4691;47.612;7.610;2022-12-10T07:52:10;97905.34;;;0.68;100.00
9307;BME280;4691;47.612;7.610;2022-12-10T07:54:35;97915.72;;;0.71;100.00
9307;BME280;4691;47.612;7.610;2022-12-10T07:57:01;97913.41;;;0.65;100.00
9307;BME280;4691;47.612;7.610;2022-12-10T07:59:26;97906.13;;;0.70;100.00
9307;BME280;4691;47.612;7.610;2022-12-10T08:01:52;97902.72;;;0.68;100.00
9307;BME280;4691;47.612;7.610;2022-12-10T08:04:17;97886.88;;;0.70;100.00
9307;BME280;4691;47.612;7.610;2022-12-10T08:06:43;97886.59;;;0.74;100.00
9307;BME280;4691;47.612;7.610;2022-12-10T08:09:09;97870.81;;;0.74;100.00
9307;BME280;4691;47.612;7.610;2022-12-10T08:11:35;97865.72;;;0.71;100.00
9307;BME280;4691;47.612;7.610;2022-12-10T08:14:00;97866.41;;;0.75;100.00
9307;BME280;4691;47.612;7.610;2022-12-10T08:16:28;97860.16;;;0.77;100.00
9307;BME280;4691;47.612;7.610;2022-12-10T08:18:55;97859.13;;;0.80;100.00
9307;BME280;4691;47.612;7.610;2022-12-10T08:21:23;97851.13;;;0.81;100.00
9307;BME280;4691;47.612;7.610;2022-12-10T08:23:48;97844.84;;;0.84;100.00
9307;BME280;4691;47.612;7.610;2022-12-10T08:26:23;97838.09;;;0.80;100.00
9307;BME280;4691;47.612;7.610;2022-12-10T08:28:50;97826.44;;;0.84;100.00
9307;BME280;4691;47.612;7.610;2022-12-10T08:31:17;97808.34;;;0.78;100.00
9307;BME280;4691;47.612;7.610;2022-12-10T08:33:43;97798.84;;;0.75;100.00
9307;BME280;4691;47.612;7.610;2022-12-10T08:36:11;97795.97;;;0.80;100.00
9307;BME280;4691;47.612;7.610;2022-12-10T08:38:37;97793.00;;;0.86;100.00
9307;BME280;4691;47.612;7.610;2022-12-10T08:41:13;97783.91;;;0.92;100.00
9307;BME280;4691;47.612;7.610;2022-12-10T08:43:39;97782.22;;;0.91;100.00
9307;BME280;4691;47.612;7.610;2022-12-10T08:46:06;97763.19;;;0.85;100.00
9307;BME280;4691;47.612;7.610;2022-12-10T08:48:32;97772.03;;;1.00;100.00
9307;BME280;4691;47.612;7.610;2022-12-10T08:50:58;97748.25;;;0.86;100.00
9307;BME280;4691;47.612;7.610;2022-12-10T08:53:23;97738.31;;;0.91;100.00
9307;BME280;4691;47.612;7.610;2022-12-10T08:55:52;97722.09;;;0.99;100.00
9307;BME280;4691;47.612;7.610;2022-12-10T08:58:18;97697.28;;;1.03;100.00
9307;BME280;4691;47.612;7.610;2022-12-10T09:00:44;97675.81;;;0.95;100.00
9307;BME280;4691;47.612;7.610;2022-12-10T09:03:10;97662.31;;;1.01;100.00
9307;BME280;4691;47.612;7.610;2022-12-10T09:05:35;97646.59;;;0.99;100.00
9307;BME280;4691;47.612;7.610;2022-12-10T09:08:01;97632.41;;;1.02;100.00
9307;BME280;4691;47.612;7.610;2022-12-10T09:10:26;97610.00;;;0.95;100.00
9307;BME280;4691;47.612;7.610;2022-12-10T09:12:51;97590.78;;;1.08;100.00
9307;BME280;4691;47.612;7.610;2022-12-10T09:15:16;97566.50;;;1.03;100.00
9307;BME280;4691;47.612;7.610;2022-12-10T09:17:42;97554.28;;;1.02;100.00
9307;BME280;4691;47.612;7.610;2022-12-10T09:20:07;97540.19;;;1.03;100.00
9307;BME280;4691;47.612;7.610;2022-12-10T09:22:33;97531.06;;;1.09;100.00
9307;BME280;4691;47.612;7.610;2022-12-10T09:25:05;97501.81;;;0.99;100.00
9307;BME280;4691;47.612;7.610;2022-12-10T09:27:31;97475.47;;;0.99;100.00
9307;BME280;4691;47.612;7.610;2022-12-10T09:29:57;97461.84;;;1.07;100.00
9307;BME280;4691;47.612;7.610;2022-12-10T09:32:22;97464.28;;;1.10;100.00
9307;BME280;4691;47.612;7.610;2022-12-10T09:34:51;97436.50;;;1.06;100.00
9307;BME280;4691;47.612;7.610;2022-12-10T09:37:16;97459.97;;;1.09;100.00
9307;BME280;4691;47.612;7.610;2022-12-10T09:39:42;97437.03;;;1.11;100.00
9307;BME280;4691;47.612;7.610;2022-12-10T09:42:34;97409.00;;;1.10;100.00
9307;BME280;4691;47.612;7.610;2022-12-10T09:52:57;97334.19;;;1.00;100.00
9307;BME280;4691;47.612;7.610;2022-12-10T09:55:39;97326.41;;;0.98;100.00
9307;BME280;4691;47.612;7.610;2022-12-10T09:58:09;97306.94;;;1.01;100.00
9307;BME280;4691;47.612;7.610;2022-12-10T10:00:40;97305.41;;;1.11;100.00
9307;BME280;4691;47.612;7.610;2022-12-10T10:03:12;97298.63;;;1.07;100.00
9307;BME280;4691;47.612;7.610;2022-12-10T10:05:41;97275.34;;;1.01;100.00
9307;BME280;4691;47.612;7.610;2022-12-10T10:08:13;97266.13;;;1.08;100.00
9307;BME280;4691;47.612;7.610;2022-12-10T10:10:40;97259.91;;;1.09;100.00
9307;BME280;4691;47.612;7.610;2022-12-10T10:15:34;97248.06;;;1.02;100.00
9307;BME280;4691;47.612;7.610;2022-12-10T10:20:47;97219.66;;;1.07;100.00
9307;BME280;4691;47.612;7.610;2022-12-10T10:23:14;97215.06;;;1.11;100.00
9307;BME280;4691;47.612;7.610;2022-12-10T10:25:40;97216.53;;;1.15;100.00
9307;BME280;4691;47.612;7.610;2022-12-10T10:28:11;97204.53;;;1.11;100.00
9307;BME280;4691;47.612;7.610;2022-12-10T10:30:39;97203.59;;;1.12;100.00
9307;BME280;4691;47.612;7.610;2022-12-10T10:33:09;97196.97;;;1.19;100.00
9307;BME280;4691;47.612;7.610;2022-12-10T10:35:44;97188.94;;;1.20;100.00
9307;BME280;4691;47.612;7.610;2022-12-10T10:38:18;97172.56;;;1.29;100.00
9307;BME280;4691;47.612;7.610;2022-12-10T10:40:49;97163.69;;;1.30;100.00
9307;BME280;4691;47.612;7.610;2022-12-10T10:43:20;97153.81;;;1.21;100.00
9307;BME280;4691;47.612;7.610;2022-12-10T10:45:52;97161.75;;;1.07;100.00
9307;BME280;4691;47.612;7.610;2022-12-10T10:48:23;97158.19;;;1.08;100.00
9307;BME280;4691;47.612;7.610;2022-12-10T10:50:54;97161.53;;;1.10;100.00
9307;BME280;4691;47.612;7.610;2022-12-10T10:53:25;97160.75;;;1.22;100.00
9307;BME280;4691;47.612;7.610;2022-12-10T10:55:54;97160.53;;;1.25;100.00
9307;BME280;4691;47.612;7.610;2022-12-10T10:58:20;97171.47;;;1.19;100.00
9307;BME280;4691;47.612;7.610;2022-12-10T11:01:16;97174.66;;;1.24;100.00
9307;BME280;4691;47.612;7.610;2022-12-10T11:03:51;97169.19;;;1.27;100.00
9307;BME280;4691;47.612;7.610;2022-12-10T11:06:18;97179.81;;;1.13;100.00
9307;BME280;4691;47.612;7.610;2022-12-10T11:08:46;97182.97;;;1.18;100.00
9307;BME280;4691;47.612;7.610;2022-12-10T11:11:18;97185.41;;;1.21;100.00
9307;BME280;4691;47.612;7.610;2022-12-10T11:13:45;97186.31;;;1.20;100.00
9307;BME280;4691;47.612;7.610;2022-12-10T11:16:18;97192.56;;;1.32;100.00
9307;BME280;4691;47.612;7.610;2022-12-10T11:19:01;97197.59;;;1.22;100.00
9307;BME280;4691;47.612;7.610;2022-12-10T11:21:29;97192.53;;;1.19;100.00
9307;BME280;4691;47.612;7.610;2022-12-10T11:23:55;97197.59;;;1.22;100.00
9307;BME280;4691;47.612;7.610;2022-12-10T11:29:11;97204.41;;;1.39;100.00
9307;BME280;4691;47.612;7.610;2022-12-10T11:37:34;97175.47;;;1.12;100.00
9307;BME280;4691;47.612;7.610;2022-12-10T11:45:44;97201.56;;;1.15;100.00
9307;BME280;4691;47.612;7.610;2022-12-10T12:01:43;97247.50;;;1.11;100.00
9307;BME280;4691;47.612;7.610;2022-12-10T12:04:26;97249.19;;;1.12;100.00
9307;BME280;4691;47.612;7.610;2022-12-10T12:07:16;97262.13;;;1.15;100.00
9307;BME280;4691;47.612;7.610;2022-12-10T12:18:38;97314.41;;;1.21;100.00
9307;BME280;4691;47.612;7.610;2022-12-10T12:21:10;97316.78;;;1.12;100.00
9307;BME280;4691;47.612;7.610;2022-12-10T12:23:56;97320.53;;;1.22;100.00
9307;BME280;4691;47.612;7.610;2022-12-10T12:26:25;97324.19;;;1.19;100.00
9307;BME280;4691;47.612;7.610;2022-12-10T12:28:57;97329.47;;;1.19;100.00
9307;BME280;4691;47.612;7.610;2022-12-10T12:31:34;97327.31;;;1.12;100.00
9307;BME280;4691;47.612;7.610;2022-12-10T12:34:17;97331.13;;;1.20;100.00
9307;BME280;4691;47.612;7.610;2022-12-10T12:36:46;97335.81;;;1.29;100.00
9307;BME280;4691;47.612;7.610;2022-12-10T12:46:56;97332.84;;;1.21;100.00
9307;BME280;4691;47.612;7.610;2022-12-10T12:52:02;97331.13;;;1.20;100.00
9307;BME280;4691;47.612;7.610;2022-12-10T12:54:32;97335.38;;;1.23;100.00
9307;BME280;4691;47.612;7.610;2022-12-10T13:02:28;97333.41;;;1.12;100.00
9307;BME280;4691;47.612;7.610;2022-12-10T13:05:01;97340.63;;;1.23;100.00
9307;BME280;4691;47.612;7.610;2022-12-10T13:07:32;97339.00;;;1.35;100.00
9307;BME280;4691;47.612;7.610;2022-12-10T13:10:09;97336.22;;;1.23;100.00
9307;BME280;4691;47.612;7.610;2022-12-10T13:12:51;97340.00;;;1.19;100.00
9307;BME280;4691;47.612;7.610;2022-12-10T13:15:37;97337.44;;;1.18;100.00
9307;BME280;4691;47.612;7.610;2022-12-10T13:31:08;97352.03;;;1.23;100.00
9307;BME280;4691;47.612;7.610;2022-12-10T13:39:22;97353.06;;;1.21;100.00
9307;BME280;4691;47.612;7.610;2022-12-10T13:45:16;97364.66;;;1.18;100.00
9307;BME280;4691;47.612;7.610;2022-12-10T13:48:34;97364.53;;;1.20;100.00
9307;BME280;4691;47.612;7.610;2022-12-10T13:50:45;97372.00;;;1.13;100.00
9307;BME280;4691;47.612;7.610;2022-12-10T13:58:26;97400.34;;;1.22;100.00
9307;BME280;4691;47.612;7.610;2022-12-10T14:06:20;97411.84;;;1.21;100.00
9307;BME280;4691;47.612;7.610;2022-12-10T14:09:11;97406.94;;;1.15;100.00
9307;BME280;4691;47.612;7.610;2022-12-10T14:12:10;97420.50;;;1.23;100.00
9307;BME280;4691;47.612;7.610;2022-12-10T14:14:43;97419.81;;;1.20;100.00
9307;BME280;4691;47.612;7.610;2022-12-10T14:17:14;97415.78;;;1.14;100.00
9307;BME280;4691;47.612;7.610;2022-12-10T14:19:42;97424.34;;;1.18;100.00
9307;BME280;4691;47.612;7.610;2022-12-10T14:22:14;97428.56;;;1.20;100.00
9307;BME280;4691;47.612;7.610;2022-12-10T14:24:40;97431.59;;;1.14;100.00
9307;BME280;4691;47.612;7.610;2022-12-10T14:27:17;97442.13;;;1.14;100.00
9307;BME280;4691;47.612;7.610;2022-12-10T14:29:51;97452.47;;;1.17;100.00
9307;BME280;4691;47.612;7.610;2022-12-10T14:32:19;97459.78;;;1.12;100.00
9307;BME280;4691;47.612;7.610;2022-12-10T14:34:57;97477.31;;;1.13;100.00
9307;BME280;4691;47.612;7.610;2022-12-10T14:37:26;97477.31;;;1.13;100.00
9307;BME280;4691;47.612;7.610;2022-12-10T14:39:53;97491.88;;;1.19;100.00
9307;BME280;4691;47.612;7.610;2022-12-10T14:42:18;97500.69;;;1.03;100.00
9307;BME280;4691;47.612;7.610;2022-12-10T14:44:44;97524.28;;;1.05;100.00
9307;BME280;4691;47.612;7.610;2022-12-10T14:47:17;97550.16;;;1.13;100.00
9307;BME280;4691;47.612;7.610;2022-12-10T14:49:46;97554.94;;;1.06;100.00
9307;BME280;4691;47.612;7.610;2022-12-10T14:52:18;97571.13;;;1.14;100.00
9307;BME280;4691;47.612;7.610;2022-12-10T14:54:44;97586.88;;;1.00;100.00
9307;BME280;4691;47.612;7.610;2022-12-10T14:57:18;97599.47;;;0.95;100.00
9307;BME280;4691;47.612;7.610;2022-12-10T14:59:50;97608.97;;;0.97;100.00
9307;BME280;4691;47.612;7.610;2022-12-10T15:02:28;97626.66;;;0.95;100.00
9307;BME280;4691;47.612;7.610;2022-12-10T15:04:55;97648.38;;;0.99;100.00
9307;BME280;4691;47.612;7.610;2022-12-10T15:07:23;97668.59;;;0.98;100.00
9307;BME280;4691;47.612;7.610;2022-12-10T15:09:51;97684.72;;;0.92;100.00
9307;BME280;4691;47.612;7.610;2022-12-10T15:12:38;97704.44;;;0.85;100.00
9307;BME280;4691;47.612;7.610;2022-12-10T15:17:51;97742.63;;;0.92;100.00
9307;BME280;4691;47.612;7.610;2022-12-10T15:20:20;97755.19;;;0.87;100.00
9307;BME280;4691;47.612;7.610;2022-12-10T15:22:46;97774.81;;;0.81;100.00
9307;BME280;4691;47.612;7.610;2022-12-10T15:25:19;97796.47;;;0.86;100.00
9307;BME280;4691;47.612;7.610;2022-12-10T15:27:56;97823.72;;;0.85;100.00
9307;BME280;4691;47.612;7.610;2022-12-10T15:30:24;97856.09;;;0.88;100.00
9307;BME280;4691;47.612;7.610;2022-12-10T15:32:50;97877.28;;;0.84;100.00
9307;BME280;4691;47.612;7.610;2022-12-10T15:35:15;97893.06;;;0.84;100.00